Time;durP1;ratioP1;P1;durP2;ratioP2;P2;SDS_P1;SDS_P2;PMS_P1;PMS_P2;Temp;Humidity;BMP_temperature;BMP_pressure;BME280_temperature;BME280_humidity;BME280_pressure;Samples;Min_cycle;Max_cycle;Signal;HPM_P1;HPM_P2
2024/02/20 00:00:36;;;;;;;;;;;;;;;-0.16;64.02;102017.14;107619;1251;97685;-63
2024/02/20 00:03:25;;;;;;;;;;;;;;;-0.14;63.86;102015.86;107547;1254;114073;-63
2024/02/20 00:05:53;;;;;;;;;;;;;;;-0.14;64.16;102016.59;107613;1254;109553;-63
2024/02/20 00:08:21;;;;;;;;;;;;;;;-0.17;64.38;102015.05;107565;1253;107127;-63
2024/02/20 00:10:50;;;;;;;;;;;;;;;-0.16;64.58;102017.86;107563;1251;97841;-64
2024/02/20 00:13:18;;;;;;;;;;;;;;;-0.13;64.48;102022.74;107530;1252;97970;-63
2024/02/20 00:15:47;;;;;;;;;;;;;;;-0.13;64.66;102022.90;107610;1254;111823;-66
2024/02/20 00:18:15;;;;;;;;;;;;;;;-0.13;64.84;102022.91;107559;1254;108384;-66
2024/02/20 00:20:44;;;;;;;;;;;;;;;-0.17;64.66;102024.59;107549;1253;108004;-63
2024/02/20 00:23:14;;;;;;;;;;;;;;;-0.21;64.50;102021.85;107572;1254;97978;-64
2024/02/20 00:25:43;;;;;;;;;;;;;;;-0.23;64.67;102016.98;107672;1251;97904;-62
2024/02/20 00:28:12;;;;;;;;;;;;;;;-0.26;64.77;102013.17;107588;1254;112260;-63
2024/02/20 00:30:41;;;;;;;;;;;;;;;-0.30;64.74;102012.02;107584;1250;108646;-62
2024/02/20 00:33:09;;;;;;;;;;;;;;;-0.32;64.97;102009.94;107572;1251;107837;-61
2024/02/20 00:35:38;;;;;;;;;;;;;;;-0.33;65.19;102006.63;107535;1252;97835;-62
2024/02/20 00:38:07;;;;;;;;;;;;;;;-0.35;65.07;102008.41;107682;1254;97921;-64
2024/02/20 00:40:35;;;;;;;;;;;;;;;-0.34;65.37;102005.92;107607;1254;112109;-63
2024/02/20 00:43:04;;;;;;;;;;;;;;;-0.31;65.31;102005.17;107567;1250;107878;-65
2024/02/20 00:45:32;;;;;;;;;;;;;;;-0.28;65.29;102009.87;107549;1254;108303;-62
2024/02/20 00:48:00;;;;;;;;;;;;;;;-0.25;65.22;102009.27;107629;1254;97852;-65
2024/02/20 00:50:29;;;;;;;;;;;;;;;-0.24;65.39;102006.07;107524;1253;97822;-62
2024/02/20 00:52:57;;;;;;;;;;;;;;;-0.23;65.26;102002.33;107620;1252;110908;-62
2024/02/20 00:55:26;;;;;;;;;;;;;;;-0.26;65.41;101991.48;107641;1251;108093;-62
2024/02/20 00:57:57;;;;;;;;;;;;;;;-0.27;65.60;101991.33;107602;1254;107084;-64
2024/02/20 01:00:27;;;;;;;;;;;;;;;-0.32;65.20;101989.15;107646;1251;97819;-61
2024/02/20 01:02:58;;;;;;;;;;;;;;;-0.36;65.25;101994.52;107540;1252;97904;-63
2024/02/20 01:05:27;;;;;;;;;;;;;;;-0.38;65.49;101991.21;107620;1254;110850;-63
2024/02/20 01:07:57;;;;;;;;;;;;;;;-0.37;65.36;101992.61;107483;1254;107901;-62
2024/02/20 01:10:26;;;;;;;;;;;;;;;-0.37;65.53;101991.54;107585;1254;108429;-63
2024/02/20 01:12:54;;;;;;;;;;;;;;;-0.35;65.77;101992.21;107575;1251;97825;-64
2024/02/20 01:15:23;;;;;;;;;;;;;;;-0.37;66.08;101988.73;107681;1251;97831;-65
2024/02/20 01:17:52;;;;;;;;;;;;;;;-0.36;65.74;101984.66;107638;1255;111513;-66
2024/02/20 01:20:21;;;;;;;;;;;;;;;-0.33;65.73;101978.23;107520;1254;108617;-61
2024/02/20 01:22:50;;;;;;;;;;;;;;;-0.30;65.88;101976.40;107597;1251;108774;-63
2024/02/20 01:25:18;;;;;;;;;;;;;;;-0.33;65.77;101975.77;107452;1254;97825;-62
2024/02/20 01:27:47;;;;;;;;;;;;;;;-0.34;65.55;101969.98;107454;1252;97838;-62
2024/02/20 01:30:16;;;;;;;;;;;;;;;-0.33;65.51;101968.90;107599;1254;112557;-63
2024/02/20 01:32:44;;;;;;;;;;;;;;;-0.30;65.53;101969.70;107406;1254;108034;-63
2024/02/20 01:35:13;;;;;;;;;;;;;;;-0.26;65.50;101961.48;107498;1251;108385;-62
2024/02/20 01:37:42;;;;;;;;;;;;;;;-0.22;65.53;101958.06;107426;1251;97829;-62
2024/02/20 01:40:11;;;;;;;;;;;;;;;-0.20;65.65;101959.42;107555;1254;97861;-63
2024/02/20 01:42:39;;;;;;;;;;;;;;;-0.19;65.47;101959.92;107517;1251;111168;-63
2024/02/20 01:45:08;;;;;;;;;;;;;;;-0.14;65.38;101956.30;107492;1252;107146;-64
2024/02/20 01:47:37;;;;;;;;;;;;;;;-0.16;65.52;101949.42;107558;1251;107651;-63
2024/02/20 01:50:06;;;;;;;;;;;;;;;-0.15;65.63;101942.55;107534;1254;97837;-64
2024/02/20 01:52:35;;;;;;;;;;;;;;;-0.12;65.76;101938.58;107658;1254;97857;-62
2024/02/20 01:55:05;;;;;;;;;;;;;;;-0.08;65.92;101940.44;107654;1253;111802;-62
2024/02/20 01:57:34;;;;;;;;;;;;;;;-0.02;65.64;101938.52;107579;1254;108325;-64
2024/02/20 02:00:04;;;;;;;;;;;;;;;-0.01;65.42;101938.49;107660;1253;108514;-62
2024/02/20 02:02:39;;;;;;;;;;;;;;;-0.02;65.37;101935.88;107533;1253;97865;-62
2024/02/20 02:05:08;;;;;;;;;;;;;;;-0.08;65.38;101929.67;107672;1253;97739;-64
2024/02/20 02:07:36;;;;;;;;;;;;;;;-0.11;65.40;101922.88;107654;1254;110669;-62
2024/02/20 02:10:05;;;;;;;;;;;;;;;-0.16;65.38;101922.98;107595;1251;107790;-63
2024/02/20 02:12:34;;;;;;;;;;;;;;;-0.19;65.35;101927.11;107509;1253;106698;-61
2024/02/20 02:15:02;;;;;;;;;;;;;;;-0.23;65.37;101926.15;107534;1254;97916;-63
2024/02/20 02:17:30;;;;;;;;;;;;;;;-0.27;65.78;101924.70;107613;1253;97736;-64
2024/02/20 02:19:59;;;;;;;;;;;;;;;-0.33;65.73;101922.52;107538;1254;111273;-61
2024/02/20 02:22:28;;;;;;;;;;;;;;;-0.35;65.64;101919.04;107513;1250;108527;-62
2024/02/20 02:24:56;;;;;;;;;;;;;;;-0.33;65.86;101918.48;107610;1251;108337;-63
2024/02/20 02:27:24;;;;;;;;;;;;;;;-0.28;65.91;101921.02;107510;1251;97844;-63
2024/02/20 02:29:52;;;;;;;;;;;;;;;-0.24;65.83;101929.38;107653;1251;97898;-62
2024/02/20 02:32:21;;;;;;;;;;;;;;;-0.21;65.79;101925.23;107601;1252;112038;-63
2024/02/20 02:34:49;;;;;;;;;;;;;;;-0.18;65.86;101921.11;107608;1253;108550;-62
2024/02/20 02:37:18;;;;;;;;;;;;;;;-0.18;65.76;101922.52;107644;1251;107875;-63
2024/02/20 02:39:46;;;;;;;;;;;;;;;-0.18;65.58;101917.91;107570;1254;97837;-61
2024/02/20 02:42:14;;;;;;;;;;;;;;;-0.17;65.76;101918.26;107578;1254;97777;-61
2024/02/20 02:44:44;;;;;;;;;;;;;;;-0.15;65.70;101920.33;107586;1250;112047;-62
2024/02/20 02:47:12;;;;;;;;;;;;;;;-0.14;65.94;101924.72;107561;1250;108733;-65
2024/02/20 02:49:41;;;;;;;;;;;;;;;-0.13;65.55;101925.23;107467;1253;108608;-64
2024/02/20 02:52:09;;;;;;;;;;;;;;;-0.11;65.50;101928.15;107618;1251;97822;-64
2024/02/20 02:54:37;;;;;;;;;;;;;;;-0.08;65.90;101922.45;107566;1250;97818;-66
2024/02/20 02:57:06;;;;;;;;;;;;;;;-0.06;65.79;101921.15;107585;1251;111982;-66
2024/02/20 02:59:34;;;;;;;;;;;;;;;-0.03;65.76;101920.91;107555;1250;107715;-64
2024/02/20 03:02:03;;;;;;;;;;;;;;;-0.01;65.53;101916.27;107574;1251;108949;-64
2024/02/20 03:04:32;;;;;;;;;;;;;;;0.02;65.73;101917.42;107631;1252;97834;-64
2024/02/20 03:07:01;;;;;;;;;;;;;;;0.00;65.67;101931.59;107616;1253;97858;-63
2024/02/20 03:09:29;;;;;;;;;;;;;;;-0.01;65.75;101933.55;107459;1254;112255;-63
2024/02/20 03:11:58;;;;;;;;;;;;;;;-0.02;65.89;101937.45;107601;1254;107934;-64
2024/02/20 03:14:26;;;;;;;;;;;;;;;-0.02;65.66;101934.11;107642;1251;107925;-65
2024/02/20 03:16:54;;;;;;;;;;;;;;;-0.01;65.74;101934.27;107510;1253;97832;-63
2024/02/20 03:19:23;;;;;;;;;;;;;;;0.02;65.77;101939.33;107561;1253;97829;-62
2024/02/20 03:21:52;;;;;;;;;;;;;;;0.03;65.80;101931.86;107595;1251;111528;-64
2024/02/20 03:24:20;;;;;;;;;;;;;;;0.04;65.58;101926.36;107552;1254;108596;-63
2024/02/20 03:26:48;;;;;;;;;;;;;;;0.07;65.88;101927.17;107561;1251;107719;-64
2024/02/20 03:29:17;;;;;;;;;;;;;;;0.11;65.72;101928.64;107573;1253;97847;-63
2024/02/20 03:31:45;;;;;;;;;;;;;;;0.15;65.80;101926.95;107582;1251;97806;-63
2024/02/20 03:34:13;;;;;;;;;;;;;;;0.19;65.71;101937.10;107611;1253;112102;-62
2024/02/20 03:36:42;;;;;;;;;;;;;;;0.21;65.74;101934.23;107595;1251;107142;-62
2024/02/20 03:39:10;;;;;;;;;;;;;;;0.22;65.94;101938.60;107556;1251;108056;-63
2024/02/20 03:41:39;;;;;;;;;;;;;;;0.24;65.75;101934.86;107563;1250;97828;-63
2024/02/20 03:44:07;;;;;;;;;;;;;;;0.23;65.74;101935.91;107495;1254;97839;-64
2024/02/20 03:46:35;;;;;;;;;;;;;;;0.21;65.56;101937.39;107633;1251;111849;-62
2024/02/20 03:49:04;;;;;;;;;;;;;;;0.21;65.76;101935.83;107528;1253;107546;-63
2024/02/20 03:51:33;;;;;;;;;;;;;;;0.23;65.68;101937.16;107503;1253;108385;-64
2024/02/20 03:54:01;;;;;;;;;;;;;;;0.24;65.89;101939.43;107569;1250;97938;-64
2024/02/20 03:56:29;;;;;;;;;;;;;;;0.24;65.69;101949.14;107568;1250;97851;-63
2024/02/20 03:58:58;;;;;;;;;;;;;;;0.24;65.60;101945.07;107553;1250;111475;-65
2024/02/20 04:01:26;;;;;;;;;;;;;;;0.27;65.65;101945.16;107619;1253;108117;-65
2024/02/20 04:03:54;;;;;;;;;;;;;;;0.30;65.78;101953.02;107553;1251;109277;-64
2024/02/20 04:06:23;;;;;;;;;;;;;;;0.34;65.68;101954.36;107614;1254;97937;-64
2024/02/20 04:08:51;;;;;;;;;;;;;;;0.36;65.69;101951.65;107599;1253;97814;-66
2024/02/20 04:11:20;;;;;;;;;;;;;;;0.33;65.75;101948.91;107565;1255;111283;-63
2024/02/20 04:13:48;;;;;;;;;;;;;;;0.30;65.76;101948.98;107584;1254;107510;-63
2024/02/20 04:16:16;;;;;;;;;;;;;;;0.28;65.75;101953.96;107545;1252;108323;-63
2024/02/20 04:18:45;;;;;;;;;;;;;;;0.28;65.81;101954.84;107584;1253;97838;-63
2024/02/20 04:21:14;;;;;;;;;;;;;;;0.29;65.74;101957.10;107620;1250;97835;-62
2024/02/20 04:23:45;;;;;;;;;;;;;;;0.29;65.93;101952.01;107596;1253;111930;-63
2024/02/20 04:26:13;;;;;;;;;;;;;;;0.28;65.94;101950.08;107589;1253;107775;-63
2024/02/20 04:28:41;;;;;;;;;;;;;;;0.28;65.94;101946.02;107560;1255;107827;-63
2024/02/20 04:31:09;;;;;;;;;;;;;;;0.31;66.07;101946.66;107439;1252;97809;-63
2024/02/20 04:33:38;;;;;;;;;;;;;;;0.33;66.13;101953.67;107633;1252;97740;-64
2024/02/20 04:36:06;;;;;;;;;;;;;;;0.37;66.33;101951.27;107558;1254;111297;-64
2024/02/20 04:38:35;;;;;;;;;;;;;;;0.42;66.30;101952.70;107632;1254;107417;-62
2024/02/20 04:41:03;;;;;;;;;;;;;;;0.49;66.33;101952.71;107556;1253;108986;-64
2024/02/20 04:43:32;;;;;;;;;;;;;;;0.54;66.40;101953.83;107555;1254;98075;-62
2024/02/20 04:46:00;;;;;;;;;;;;;;;0.56;66.29;101951.11;107568;1253;97723;-63
2024/02/20 04:48:29;;;;;;;;;;;;;;;0.57;66.21;101948.41;107584;1254;111887;-63
2024/02/20 04:50:57;;;;;;;;;;;;;;;0.60;66.15;101949.94;107543;1256;107179;-63
2024/02/20 04:53:26;;;;;;;;;;;;;;;0.63;66.05;101954.25;107568;1254;108504;-64
2024/02/20 04:55:54;;;;;;;;;;;;;;;0.67;66.24;101950.44;107550;1254;97865;-62
2024/02/20 04:58:22;;;;;;;;;;;;;;;0.74;66.35;101952.73;107538;1252;98476;-64
2024/02/20 05:00:51;;;;;;;;;;;;;;;0.80;66.39;101949.55;107527;1254;111690;-65
2024/02/20 05:03:20;;;;;;;;;;;;;;;0.86;66.36;101954.33;107560;1254;107109;-64
2024/02/20 05:05:48;;;;;;;;;;;;;;;0.89;66.25;101952.66;107522;1251;108869;-65
2024/02/20 05:08:17;;;;;;;;;;;;;;;0.92;66.22;101954.68;107571;1254;97829;-63
2024/02/20 05:10:45;;;;;;;;;;;;;;;0.94;66.06;101953.39;107542;1253;97766;-64
2024/02/20 05:13:14;;;;;;;;;;;;;;;0.94;65.73;101954.80;107624;1254;112065;-65
2024/02/20 05:15:42;;;;;;;;;;;;;;;0.97;65.97;101957.36;107544;1254;107976;-63
2024/02/20 05:18:11;;;;;;;;;;;;;;;1.00;65.94;101952.52;107574;1253;108265;-63
2024/02/20 05:20:39;;;;;;;;;;;;;;;1.01;65.89;101951.43;107604;1254;97956;-64
2024/02/20 05:23:08;;;;;;;;;;;;;;;1.02;65.66;101948.74;107633;1253;96925;-63
2024/02/20 05:25:36;;;;;;;;;;;;;;;1.01;65.53;101951.41;107604;1252;112328;-63
2024/02/20 05:28:04;;;;;;;;;;;;;;;1.00;65.46;101952.52;107575;1254;107607;-64
2024/02/20 05:30:33;;;;;;;;;;;;;;;0.97;65.37;101952.25;107528;1253;107876;-63
2024/02/20 05:33:02;;;;;;;;;;;;;;;0.98;65.51;101953.61;107565;1254;97845;-62
2024/02/20 05:35:31;;;;;;;;;;;;;;;1.00;65.52;101950.21;107548;1252;97842;-64
2024/02/20 05:38:05;;;;;;;;;;;;;;;1.03;65.28;101960.04;107574;1253;112330;-65
2024/02/20 05:40:34;;;;;;;;;;;;;;;1.04;65.37;101962.46;107557;1254;107673;-65
2024/02/20 05:43:02;;;;;;;;;;;;;;;1.05;65.40;101964.36;107584;1255;107553;-65
2024/02/20 05:45:33;;;;;;;;;;;;;;;1.07;65.42;101959.20;107550;1254;97838;-63
2024/02/20 05:48:02;;;;;;;;;;;;;;;1.08;65.36;101960.58;107550;1253;97796;-62
2024/02/20 05:50:31;;;;;;;;;;;;;;;1.08;65.32;101967.80;107573;1253;112416;-64
2024/02/20 05:53:05;;;;;;;;;;;;;;;1.08;65.30;101966.74;107605;1254;106796;-64
2024/02/20 05:55:34;;;;;;;;;;;;;;;1.08;65.17;101963.94;107596;1253;108274;-64
2024/02/20 05:58:03;;;;;;;;;;;;;;;1.09;65.10;101964.77;107553;1252;98544;-64
2024/02/20 06:00:32;;;;;;;;;;;;;;;1.09;65.35;101964.25;107520;1254;97839;-63
2024/02/20 06:03:00;;;;;;;;;;;;;;;1.09;65.18;101970.45;107578;1252;111611;-63
2024/02/20 06:05:28;;;;;;;;;;;;;;;1.08;65.15;101970.83;107564;1256;107127;-66
2024/02/20 06:07:57;;;;;;;;;;;;;;;1.08;65.27;101976.47;107569;1253;108274;-63
2024/02/20 06:10:25;;;;;;;;;;;;;;;1.13;65.51;101973.85;107555;1252;97756;-63
2024/02/20 06:12:53;;;;;;;;;;;;;;;1.19;65.45;101973.50;107504;1253;97720;-63
2024/02/20 06:15:22;;;;;;;;;;;;;;;1.23;65.46;101974.98;107583;1254;111878;-63
2024/02/20 06:17:50;;;;;;;;;;;;;;;1.29;65.63;101979.58;107606;1254;108548;-64
2024/02/20 06:20:19;;;;;;;;;;;;;;;1.35;65.51;101976.56;107610;1254;108121;-63
2024/02/20 06:22:47;;;;;;;;;;;;;;;1.41;65.36;101980.64;107559;1253;98007;-61
2024/02/20 06:25:15;;;;;;;;;;;;;;;1.46;65.47;101985.96;107581;1252;97883;-62
2024/02/20 06:27:45;;;;;;;;;;;;;;;1.48;65.13;101982.71;107426;1254;112328;-62
2024/02/20 06:30:14;;;;;;;;;;;;;;;1.48;65.00;101983.41;107536;1252;108096;-62
2024/02/20 06:32:42;;;;;;;;;;;;;;;1.50;65.18;101986.36;107552;1254;107679;-62
2024/02/20 06:35:10;;;;;;;;;;;;;;;1.54;65.18;101987.30;107594;1251;97740;-67
2024/02/20 06:37:39;;;;;;;;;;;;;;;1.57;65.03;101985.45;107571;1253;97885;-64
2024/02/20 06:40:08;;;;;;;;;;;;;;;1.61;65.25;101986.38;107615;1251;112085;-65
2024/02/20 06:42:36;;;;;;;;;;;;;;;1.65;65.10;101992.27;107624;1254;107069;-62
2024/02/20 06:45:05;;;;;;;;;;;;;;;1.70;65.05;101991.93;107515;1251;108606;-63
2024/02/20 06:47:35;;;;;;;;;;;;;;;1.74;64.89;101993.04;107545;1252;97838;-63
2024/02/20 06:50:04;;;;;;;;;;;;;;;1.78;64.94;101992.22;107607;1251;97813;-62
2024/02/20 06:52:33;;;;;;;;;;;;;;;1.80;64.78;101994.09;107561;1254;111541;-62
2024/02/20 06:55:02;;;;;;;;;;;;;;;1.84;64.90;101998.73;107578;1255;106424;-63
2024/02/20 06:57:30;;;;;;;;;;;;;;;1.84;64.79;101987.21;107576;1255;107749;-62
2024/02/20 06:59:59;;;;;;;;;;;;;;;1.91;64.61;101987.20;107522;1253;97830;-64
2024/02/20 07:02:28;;;;;;;;;;;;;;;1.95;64.73;101992.02;107587;1251;97838;-64
2024/02/20 07:04:57;;;;;;;;;;;;;;;1.96;64.43;101987.91;107540;1251;112008;-62
2024/02/20 07:07:25;;;;;;;;;;;;;;;2.00;64.57;101991.50;107568;1252;108456;-63
2024/02/20 07:09:53;;;;;;;;;;;;;;;2.03;64.45;101991.58;107534;1253;107691;-63
2024/02/20 07:12:22;;;;;;;;;;;;;;;2.05;64.39;101989.92;107463;1252;97906;-63
2024/02/20 07:14:51;;;;;;;;;;;;;;;2.11;64.54;101995.03;107612;1254;97707;-62
2024/02/20 07:17:19;;;;;;;;;;;;;;;2.17;64.55;101995.18;107557;1254;111137;-62
2024/02/20 07:19:47;;;;;;;;;;;;;;;2.23;64.48;102003.48;107605;1254;108533;-63
2024/02/20 07:22:16;;;;;;;;;;;;;;;2.26;64.30;102000.70;107559;1256;108825;-64
2024/02/20 07:24:44;;;;;;;;;;;;;;;2.30;64.21;101999.52;107619;1251;97924;-63
2024/02/20 07:27:13;;;;;;;;;;;;;;;2.34;64.28;102000.45;107545;1251;97851;-63
2024/02/20 07:29:42;;;;;;;;;;;;;;;2.38;63.97;102002.09;107547;1251;111829;-63
2024/02/20 07:32:10;;;;;;;;;;;;;;;2.40;64.33;101999.87;107438;1254;108590;-62
2024/02/20 07:34:38;;;;;;;;;;;;;;;2.45;64.02;101991.91;107466;1255;108225;-62
2024/02/20 07:37:07;;;;;;;;;;;;;;;2.48;63.94;101993.06;107503;1254;97910;-64
2024/02/20 07:39:36;;;;;;;;;;;;;;;2.50;64.02;101993.37;107547;1254;97922;-64
2024/02/20 07:42:05;;;;;;;;;;;;;;;2.53;64.06;101992.90;107451;1253;111436;-66
2024/02/20 07:44:34;;;;;;;;;;;;;;;2.57;64.36;101991.86;107404;1254;107433;-64
2024/02/20 07:47:03;;;;;;;;;;;;;;;2.67;64.27;101993.13;107489;1253;108512;-64
2024/02/20 07:49:31;;;;;;;;;;;;;;;2.77;64.52;101990.45;107565;1255;97844;-63
2024/02/20 07:52:00;;;;;;;;;;;;;;;2.86;64.37;101991.55;107481;1252;97729;-64
2024/02/20 07:54:28;;;;;;;;;;;;;;;2.94;64.33;101994.45;107499;1255;111716;-65
2024/02/20 07:56:57;;;;;;;;;;;;;;;3.02;64.04;101989.36;107451;1251;108599;-64
2024/02/20 07:59:25;;;;;;;;;;;;;;;3.10;64.15;101985.34;107593;1251;108086;-64
2024/02/20 08:01:53;;;;;;;;;;;;;;;3.19;64.27;101988.91;107454;1254;97828;-62
2024/02/20 08:04:22;;;;;;;;;;;;;;;3.26;63.88;101988.63;107467;1251;97792;-62
2024/02/20 08:06:51;;;;;;;;;;;;;;;3.31;63.83;101985.95;107521;1251;112235;-62
2024/02/20 08:09:20;;;;;;;;;;;;;;;3.39;63.70;101988.15;107462;1254;108343;-63
2024/02/20 08:11:49;;;;;;;;;;;;;;;3.46;63.23;101986.10;107466;1256;108136;-64
2024/02/20 08:14:19;;;;;;;;;;;;;;;3.50;63.15;101984.52;107424;1253;97806;-64
2024/02/20 08:16:48;;;;;;;;;;;;;;;3.53;62.73;101990.27;107516;1254;97832;-63
2024/02/20 08:19:17;;;;;;;;;;;;;;;3.58;62.57;101988.83;107479;1254;111676;-63
2024/02/20 08:21:45;;;;;;;;;;;;;;;3.59;62.52;101988.92;107563;1254;108491;-65
2024/02/20 08:24:15;;;;;;;;;;;;;;;3.65;62.89;101991.73;107537;1251;107528;-64
2024/02/20 08:26:43;;;;;;;;;;;;;;;3.71;62.03;101995.42;107471;1254;97841;-64
2024/02/20 08:29:12;;;;;;;;;;;;;;;3.69;61.24;101993.17;107528;1254;96615;-63
2024/02/20 08:31:42;;;;;;;;;;;;;;;3.65;61.17;102001.16;107491;1256;111296;-63
2024/02/20 08:34:10;;;;;;;;;;;;;;;3.63;61.49;102000.86;107563;1255;108615;-63
2024/02/20 08:36:39;;;;;;;;;;;;;;;3.64;61.42;102002.25;107480;1255;107971;-62
2024/02/20 08:39:08;;;;;;;;;;;;;;;3.63;61.26;102002.45;107471;1251;97825;-63
2024/02/20 08:41:36;;;;;;;;;;;;;;;3.61;61.31;102000.41;107405;1254;97941;-63
2024/02/20 08:44:05;;;;;;;;;;;;;;;3.62;61.38;101999.34;107507;1251;111973;-62
2024/02/20 08:46:34;;;;;;;;;;;;;;;3.61;61.52;101997.20;107150;1254;547206;-63
2024/02/20 08:49:03;;;;;;;;;;;;;;;3.63;61.55;101998.20;107456;1254;108103;-63
2024/02/20 08:51:31;;;;;;;;;;;;;;;3.62;61.45;101998.78;107443;1253;97717;-64
2024/02/20 08:54:00;;;;;;;;;;;;;;;3.64;61.71;101996.92;107500;1254;97730;-64
2024/02/20 08:56:28;;;;;;;;;;;;;;;3.64;61.73;101991.59;107513;1254;110305;-66
2024/02/20 08:58:56;;;;;;;;;;;;;;;3.64;61.86;101994.27;107458;1254;108241;-66
2024/02/20 09:01:25;;;;;;;;;;;;;;;3.65;61.88;101999.20;107597;1251;108284;-63
2024/02/20 09:03:54;;;;;;;;;;;;;;;3.68;61.92;101995.89;107578;1250;97810;-64
2024/02/20 09:06:23;;;;;;;;;;;;;;;3.71;61.81;101995.77;107501;1253;97866;-62
2024/02/20 09:08:51;;;;;;;;;;;;;;;3.75;61.74;101990.98;107526;1251;110867;-63
2024/02/20 09:11:19;;;;;;;;;;;;;;;3.82;61.84;101990.53;107422;1253;108029;-63
2024/02/20 09:13:48;;;;;;;;;;;;;;;3.89;61.39;101990.80;107463;1254;110127;-63
2024/02/20 09:16:16;;;;;;;;;;;;;;;3.94;61.42;101987.55;107468;1254;97909;-65
2024/02/20 09:18:45;;;;;;;;;;;;;;;3.99;61.54;101986.81;107493;1255;97923;-64
2024/02/20 09:21:16;;;;;;;;;;;;;;;4.06;61.59;101994.34;107527;1253;112439;-64
2024/02/20 09:23:44;;;;;;;;;;;;;;;4.13;61.67;101991.90;107563;1255;108404;-65
2024/02/20 09:26:14;;;;;;;;;;;;;;;4.21;61.53;101991.77;107505;1253;108166;-63
2024/02/20 09:28:42;;;;;;;;;;;;;;;4.26;60.84;101996.72;107489;1254;98271;-63
2024/02/20 09:31:11;;;;;;;;;;;;;;;4.24;60.93;101992.88;107535;1251;98488;-63
2024/02/20 09:33:39;;;;;;;;;;;;;;;4.28;61.00;101991.64;107499;1255;111625;-63
2024/02/20 09:36:09;;;;;;;;;;;;;;;4.33;60.91;101992.70;107444;1253;107399;-63
2024/02/20 09:38:37;;;;;;;;;;;;;;;4.34;60.83;101992.79;107511;1254;108271;-63
2024/02/20 09:41:07;;;;;;;;;;;;;;;4.36;60.63;101995.38;107408;1252;97842;-63
2024/02/20 09:43:37;;;;;;;;;;;;;;;4.35;60.83;101994.20;107476;1254;97953;-64
2024/02/20 09:46:12;;;;;;;;;;;;;;;4.38;60.65;101995.48;107456;1254;111259;-65
2024/02/20 09:48:41;;;;;;;;;;;;;;;4.39;60.73;101999.00;107485;1254;108680;-64
2024/02/20 09:51:10;;;;;;;;;;;;;;;4.40;60.64;101997.00;107433;1253;108083;-64
2024/02/20 09:53:39;;;;;;;;;;;;;;;4.46;61.08;101992.13;107398;1254;97868;-64
2024/02/20 09:56:08;;;;;;;;;;;;;;;4.56;60.99;101989.91;107479;1256;97829;-65
2024/02/20 09:58:36;;;;;;;;;;;;;;;4.66;60.64;101986.80;107352;1254;113106;-66
2024/02/20 10:01:05;;;;;;;;;;;;;;;4.73;60.60;101986.33;107467;1254;107854;-64
2024/02/20 10:03:38;;;;;;;;;;;;;;;4.85;60.87;101987.05;107449;1252;108576;-64
2024/02/20 10:06:08;;;;;;;;;;;;;;;4.96;59.82;101985.66;107465;1254;97896;-63
2024/02/20 10:08:36;;;;;;;;;;;;;;;5.03;59.35;101983.75;107366;1253;97845;-64
2024/02/20 10:11:06;;;;;;;;;;;;;;;5.09;59.88;101978.32;107412;1255;110985;-64
2024/02/20 10:13:47;;;;;;;;;;;;;;;5.21;59.81;101978.45;107539;1254;108659;-62
2024/02/20 10:16:16;;;;;;;;;;;;;;;5.36;59.84;101978.66;107520;1254;108030;-64
2024/02/20 10:18:57;;;;;;;;;;;;;;;5.46;59.32;101973.74;107474;1253;97924;-66
2024/02/20 10:21:27;;;;;;;;;;;;;;;5.59;58.36;101971.55;107439;1253;97852;-65
2024/02/20 10:24:05;;;;;;;;;;;;;;;5.65;58.20;101970.55;107482;1252;112003;-65
2024/02/20 10:26:35;;;;;;;;;;;;;;;5.69;58.42;101969.80;107445;1254;107985;-65
2024/02/20 10:29:05;;;;;;;;;;;;;;;5.71;57.84;101973.65;107392;1254;108339;-64
2024/02/20 10:31:33;;;;;;;;;;;;;;;5.70;58.19;101974.02;107430;1254;97938;-61
2024/02/20 10:34:02;;;;;;;;;;;;;;;5.68;58.28;101970.23;107463;1256;97950;-64
2024/02/20 10:36:42;;;;;;;;;;;;;;;5.68;57.90;101970.95;107541;1251;112177;-64
2024/02/20 10:39:10;;;;;;;;;;;;;;;5.61;58.19;101966.98;107449;1254;108374;-64
2024/02/20 10:41:39;;;;;;;;;;;;;;;5.61;58.55;101958.80;107500;1253;108619;-64
2024/02/20 10:44:08;;;;;;;;;;;;;;;5.61;58.48;101958.41;107528;1254;97717;-64
2024/02/20 10:46:37;;;;;;;;;;;;;;;5.60;58.27;101954.39;107504;1254;97822;-64
2024/02/20 10:49:26;;;;;;;;;;;;;;;5.62;58.55;101945.25;107550;1254;112150;-65
2024/02/20 10:52:01;;;;;;;;;;;;;;;5.65;58.29;101942.23;107487;1254;107633;-66
2024/02/20 10:54:32;;;;;;;;;;;;;;;5.73;58.55;101942.54;107536;1255;108500;-65
2024/02/20 10:57:14;;;;;;;;;;;;;;;5.82;58.34;101945.52;107459;1254;97820;-64
2024/02/20 10:59:43;;;;;;;;;;;;;;;5.85;58.52;101946.41;107595;1254;97837;-66
2024/02/20 11:02:11;;;;;;;;;;;;;;;5.88;58.48;101945.91;107502;1251;109243;-65
2024/02/20 11:04:40;;;;;;;;;;;;;;;5.89;58.14;101939.06;107495;1251;108104;-65
2024/02/20 11:07:09;;;;;;;;;;;;;;;5.87;58.25;101936.67;107474;1251;107684;-64
2024/02/20 11:09:37;;;;;;;;;;;;;;;5.88;58.45;101935.76;107442;1254;97789;-65
2024/02/20 11:12:06;;;;;;;;;;;;;;;5.92;58.24;101928.45;107501;1251;97844;-64
2024/02/20 11:14:35;;;;;;;;;;;;;;;5.97;58.20;101924.10;107507;1251;112430;-65
2024/02/20 11:17:14;;;;;;;;;;;;;;;6.09;58.40;101917.45;107546;1256;108655;-64
2024/02/20 11:20:05;;;;;;;;;;;;;;;6.27;58.05;101919.55;107478;1251;107934;-65
2024/02/20 11:22:34;;;;;;;;;;;;;;;6.45;58.35;101914.01;107514;1254;97876;-63
2024/02/20 11:25:06;;;;;;;;;;;;;;;6.64;58.33;101917.64;107521;1254;97836;-64
2024/02/20 11:27:41;;;;;;;;;;;;;;;6.74;57.49;101908.71;107512;1254;111674;-64
2024/02/20 11:30:21;;;;;;;;;;;;;;;6.82;57.85;101906.66;107520;1251;108013;-66
2024/02/20 11:32:53;;;;;;;;;;;;;;;6.90;57.49;101904.63;107490;1254;109025;-65
2024/02/20 11:35:22;;;;;;;;;;;;;;;6.92;57.59;101910.98;107456;1257;97844;-64
2024/02/20 11:37:53;;;;;;;;;;;;;;;6.92;57.69;101908.11;107557;1251;97912;-65
2024/02/20 11:40:24;;;;;;;;;;;;;;;6.93;57.80;101909.84;107447;1254;111728;-63
2024/02/20 11:42:54;;;;;;;;;;;;;;;6.93;57.85;101911.10;107564;1254;108958;-65
2024/02/20 11:45:24;;;;;;;;;;;;;;;6.91;57.68;101905.66;107633;1254;107720;-66
2024/02/20 11:48:19;;;;;;;;;;;;;;;6.89;57.85;101902.22;107611;1254;97925;-65
2024/02/20 11:50:47;;;;;;;;;;;;;;;6.88;57.71;101902.42;107605;1254;97957;-65
2024/02/20 11:53:16;;;;;;;;;;;;;;;6.86;57.38;101900.91;107485;1254;110497;-66
2024/02/20 11:55:48;;;;;;;;;;;;;;;6.82;56.96;101894.73;107544;1251;108159;-65
2024/02/20 11:58:18;;;;;;;;;;;;;;;6.79;57.40;101892.42;107462;1251;108575;-65
2024/02/20 12:01:05;;;;;;;;;;;;;;;6.82;57.72;101889.02;107523;1256;97725;-65
2024/02/20 12:03:35;;;;;;;;;;;;;;;6.83;57.58;101891.83;107515;1251;97895;-65
2024/02/20 12:06:07;;;;;;;;;;;;;;;6.82;57.74;101889.05;107635;1251;111808;-64
2024/02/20 12:08:41;;;;;;;;;;;;;;;6.84;57.84;101890.88;107571;1254;107398;-65
2024/02/20 12:11:19;;;;;;;;;;;;;;;6.83;57.77;101888.61;107553;1256;108133;-65
2024/02/20 12:13:50;;;;;;;;;;;;;;;6.84;57.84;101891.61;107577;1256;97842;-64
2024/02/20 12:16:25;;;;;;;;;;;;;;;6.86;58.14;101895.21;107606;1254;97850;-64
2024/02/20 12:18:57;;;;;;;;;;;;;;;6.92;58.00;101900.30;107637;1253;111200;-63
2024/02/20 12:21:38;;;;;;;;;;;;;;;6.93;57.77;101897.73;107597;1254;108425;-64
2024/02/20 12:24:10;;;;;;;;;;;;;;;6.94;57.95;101896.23;107557;1254;108252;-66
2024/02/20 12:26:38;;;;;;;;;;;;;;;6.97;57.87;101896.78;107554;1256;97928;-64
2024/02/20 12:29:06;;;;;;;;;;;;;;;6.95;57.57;101895.63;107599;1254;97853;-66
2024/02/20 12:31:34;;;;;;;;;;;;;;;6.92;57.58;101900.61;107632;1254;111007;-67
2024/02/20 12:34:05;;;;;;;;;;;;;;;6.91;57.81;101903.55;107611;1254;108259;-67
2024/02/20 12:36:36;;;;;;;;;;;;;;;6.91;57.47;101902.30;107464;1254;108491;-65
2024/02/20 12:39:04;;;;;;;;;;;;;;;6.88;57.03;101900.12;107506;1254;97866;-65